createdAt,value
2022-08-22T00:01:48.658Z,12.60
2022-08-22T00:04:18.369Z,12.50
2022-08-22T00:06:53.983Z,12.50
2022-08-22T00:09:35.107Z,12.50
2022-08-22T00:12:04.872Z,12.50
2022-08-22T00:14:41.416Z,12.50
2022-08-22T00:17:11.047Z,12.50
2022-08-22T00:19:38.121Z,12.50
2022-08-22T00:22:28.018Z,12.50
2022-08-22T00:24:54.650Z,12.50
2022-08-22T00:27:23.264Z,12.50
2022-08-22T00:29:53.548Z,12.50
2022-08-22T00:32:25.510Z,12.40
2022-08-22T00:35:07.401Z,12.40
2022-08-22T00:37:39.913Z,12.40
2022-08-22T00:40:36.224Z,12.40
2022-08-22T00:43:02.846Z,12.40
2022-08-22T00:45:32.251Z,12.40
2022-08-22T00:48:10.849Z,12.30
2022-08-22T00:51:00.071Z,12.40
2022-08-22T00:53:26.757Z,12.30
2022-08-22T00:56:11.926Z,12.20
2022-08-22T00:58:50.851Z,12.20
2022-08-22T01:01:20.729Z,12.20
2022-08-22T01:03:56.201Z,12.20
2022-08-22T01:06:25.152Z,12.20
2022-08-22T01:09:00.819Z,12.20
2022-08-22T01:11:30.554Z,12.10
2022-08-22T01:14:00.240Z,12.10
2022-08-22T01:16:29.657Z,12.10
2022-08-22T01:19:14.541Z,12.10
2022-08-22T01:21:56.566Z,12.00
2022-08-22T01:25:03.425Z,12.00
2022-08-22T01:27:34.818Z,12.10
2022-08-22T01:30:02.783Z,12.10
2022-08-22T01:32:29.442Z,12.00
2022-08-22T01:35:08.338Z,12.00
2022-08-22T01:37:35.069Z,12.10
2022-08-22T01:40:10.343Z,12.10
2022-08-22T01:42:56.072Z,12.00
2022-08-22T01:45:31.677Z,12.00
2022-08-22T01:48:05.523Z,12.00
2022-08-22T01:50:34.806Z,11.90
2022-08-22T01:53:03.686Z,12.00
2022-08-22T01:55:59.518Z,11.90
2022-08-22T01:58:33.528Z,11.80
2022-08-22T02:01:19.084Z,11.70
2022-08-22T02:03:58.024Z,11.80
2022-08-22T02:06:33.152Z,11.80
2022-08-22T02:09:07.939Z,11.80
2022-08-22T02:11:48.290Z,11.80
2022-08-22T02:14:14.914Z,11.80
2022-08-22T02:16:43.589Z,11.70
2022-08-22T02:19:10.254Z,11.70
2022-08-22T02:21:39.608Z,11.70
2022-08-22T02:24:16.542Z,11.70
2022-08-22T02:26:46.253Z,11.60
2022-08-22T02:29:18.823Z,11.60
2022-08-22T02:31:45.533Z,11.60
2022-08-22T02:34:20.480Z,11.60
2022-08-22T02:36:50.674Z,11.60
2022-08-22T02:39:20.319Z,11.50
2022-08-22T02:41:49.788Z,11.50
2022-08-22T02:44:22.613Z,11.40
2022-08-22T02:46:52.997Z,11.50
2022-08-22T02:49:31.104Z,11.40
2022-08-22T02:51:57.910Z,11.40
2022-08-22T02:54:47.599Z,11.40
2022-08-22T02:57:30.073Z,11.40
2022-08-22T03:00:31.269Z,11.40
2022-08-22T03:02:59.511Z,11.40
2022-08-22T03:05:38.241Z,11.40
2022-08-22T03:08:10.065Z,11.40
2022-08-22T03:10:41.639Z,11.30
2022-08-22T03:13:08.251Z,11.40
2022-08-22T03:15:53.963Z,11.30
2022-08-22T03:18:26.767Z,11.30
2022-08-22T03:20:54.024Z,11.30
2022-08-22T03:23:29.910Z,11.30
2022-08-22T03:25:59.832Z,11.30
2022-08-22T03:28:37.206Z,11.20
2022-08-22T03:31:12.914Z,11.20
2022-08-22T03:33:39.817Z,11.20
2022-08-22T03:36:15.673Z,11.20
2022-08-22T03:39:12.300Z,11.20
2022-08-22T03:41:57.465Z,11.20
2022-08-22T03:44:24.291Z,11.10
2022-08-22T03:46:50.991Z,11.10
2022-08-22T03:49:20.395Z,11.10
2022-08-22T03:51:56.224Z,11.00
2022-08-22T03:54:35.036Z,11.10
2022-08-22T03:57:20.619Z,11.00
2022-08-22T04:00:05.880Z,11.00
2022-08-22T04:02:47.497Z,11.00
2022-08-22T04:05:40.603Z,11.00
2022-08-22T04:08:07.891Z,11.00
2022-08-22T04:10:51.665Z,11.00
2022-08-22T04:13:21.790Z,11.00
2022-08-22T04:16:07.958Z,11.00
2022-08-22T04:18:37.936Z,10.90
2022-08-22T04:21:23.338Z,10.90
2022-08-22T04:24:08.756Z,10.90
2022-08-22T04:26:54.006Z,10.90
2022-08-22T04:29:20.718Z,10.90
2022-08-22T04:31:51.180Z,11.00
2022-08-22T04:34:26.875Z,11.00
2022-08-22T04:36:56.785Z,11.10
2022-08-22T04:39:43.887Z,11.30
2022-08-22T04:42:31.633Z,11.70
2022-08-22T04:45:01.988Z,12.00
2022-08-22T04:47:31.438Z,12.30
2022-08-22T04:50:10.126Z,12.90
2022-08-22T04:52:45.690Z,13.60
2022-08-22T04:55:31.842Z,14.70
2022-08-22T04:58:17.403Z,15.90
2022-08-22T05:00:47.971Z,17.20
2022-08-22T05:03:16.386Z,18.30
2022-08-22T05:05:44.229Z,19.10
2022-08-22T05:08:13.338Z,19.50
2022-08-22T05:10:43.369Z,19.90
2022-08-22T05:13:28.782Z,20.30
2022-08-22T05:15:57.399Z,20.40
2022-08-22T05:18:29.522Z,20.50
2022-08-22T05:20:58.670Z,20.70
2022-08-22T05:23:28.430Z,21.70
2022-08-22T05:25:57.289Z,22.40
2022-08-22T05:28:27.070Z,22.60
2022-08-22T05:30:54.383Z,22.20
2022-08-22T05:33:30.481Z,22.90
2022-08-22T05:35:59.288Z,23.80
2022-08-22T05:38:28.510Z,25.00
2022-08-22T05:40:59.393Z,25.10
2022-08-22T05:43:26.543Z,24.10
2022-08-22T05:45:54.228Z,23.00
2022-08-22T05:48:23.339Z,22.70
2022-08-22T05:50:55.749Z,24.20
2022-08-22T05:53:28.703Z,25.80
2022-08-22T05:55:55.453Z,27.00
2022-08-22T05:58:43.600Z,27.50
2022-08-22T06:01:19.692Z,28.60
2022-08-22T06:04:06.749Z,29.40
2022-08-22T06:06:37.553Z,28.80
2022-08-22T06:09:06.917Z,29.00
2022-08-22T06:11:40.574Z,29.30
2022-08-22T06:14:21.229Z,30.20
2022-08-22T06:16:59.654Z,30.30
2022-08-22T06:19:26.813Z,30.20
2022-08-22T06:21:54.459Z,30.20
2022-08-22T06:24:25.245Z,30.50
2022-08-22T06:26:53.112Z,31.10
2022-08-22T06:29:40.724Z,31.10
2022-08-22T06:32:11.443Z,31.70
2022-08-22T06:34:40.491Z,31.90
2022-08-22T06:37:09.700Z,31.90
2022-08-22T06:39:41.368Z,33.10
2022-08-22T06:42:28.239Z,32.90
2022-08-22T06:44:57.871Z,33.40
2022-08-22T06:47:30.468Z,32.60
2022-08-22T06:49:59.550Z,32.80
2022-08-22T06:52:28.327Z,33.00
2022-08-22T06:55:00.251Z,34.10
2022-08-22T06:57:38.474Z,34.20
2022-08-22T07:00:07.181Z,34.50
2022-08-22T07:02:39.039Z,34.60
2022-08-22T07:05:07.182Z,34.80
2022-08-22T07:07:35.665Z,34.50
2022-08-22T07:10:02.614Z,34.70
2022-08-22T07:12:31.094Z,34.60
2022-08-22T07:15:01.578Z,35.10
2022-08-22T07:17:30.126Z,35.70
2022-08-22T07:19:59.602Z,36.50
2022-08-22T07:22:31.227Z,37.00
2022-08-22T07:25:00.880Z,37.50
2022-08-22T07:27:37.496Z,38.00
2022-08-22T07:30:12.906Z,37.70
2022-08-22T07:32:58.029Z,37.90
2022-08-22T07:35:53.094Z,37.10
2022-08-22T07:38:23.425Z,36.60
2022-08-22T07:40:59.413Z,37.20
2022-08-22T07:43:29.265Z,36.20
2022-08-22T07:45:57.927Z,36.80
2022-08-22T07:48:27.070Z,37.30
2022-08-22T07:51:12.467Z,37.70
2022-08-22T07:53:41.782Z,37.20
2022-08-22T07:56:17.019Z,35.10
2022-08-22T07:58:45.776Z,34.10
2022-08-22T08:01:15.343Z,34.10
2022-08-22T08:03:43.289Z,34.10
2022-08-22T08:06:10.096Z,35.50
2022-08-22T08:08:41.725Z,35.90
2022-08-22T08:11:09.896Z,35.80
2022-08-22T08:13:39.010Z,36.50
2022-08-22T08:16:07.282Z,36.70
2022-08-22T08:18:35.401Z,36.30
2022-08-22T08:21:08.822Z,35.40
2022-08-22T08:23:41.339Z,34.40
2022-08-22T08:26:12.970Z,33.50
2022-08-22T08:28:42.339Z,33.80
2022-08-22T08:31:15.004Z,33.30
2022-08-22T08:33:44.141Z,33.70
2022-08-22T08:36:29.718Z,33.30
2022-08-22T08:39:10.167Z,33.20
2022-08-22T08:41:49.200Z,32.00
2022-08-22T08:44:22.655Z,32.80
2022-08-22T08:46:55.899Z,32.90
2022-08-22T08:49:23.985Z,33.30
2022-08-22T08:52:03.214Z,32.60
2022-08-22T08:54:35.873Z,32.40
2022-08-22T08:57:24.053Z,33.10
2022-08-22T09:00:16.734Z,32.60
2022-08-22T09:03:02.320Z,32.00
2022-08-22T09:05:45.899Z,31.50
2022-08-22T09:08:27.632Z,31.00
2022-08-22T09:11:14.363Z,31.30
2022-08-22T09:13:50.481Z,32.30
2022-08-22T09:16:36.704Z,31.00
2022-08-22T09:19:23.155Z,31.30
2022-08-22T09:22:14.319Z,31.50
2022-08-22T09:25:00.570Z,32.00
2022-08-22T09:27:35.232Z,33.30
2022-08-22T09:30:07.938Z,33.10
2022-08-22T09:32:47.437Z,33.20
2022-08-22T09:35:17.180Z,32.90
2022-08-22T09:37:51.684Z,32.30
2022-08-22T09:40:22.231Z,31.90
2022-08-22T09:43:01.903Z,32.50
2022-08-22T09:45:42.986Z,31.60
2022-08-22T09:48:12.592Z,31.10
2022-08-22T09:50:46.982Z,30.60
2022-08-22T09:53:38.288Z,30.80
2022-08-22T09:56:15.631Z,31.60
2022-08-22T09:58:48.487Z,31.80
2022-08-22T10:01:18.365Z,31.90
2022-08-22T10:03:45.235Z,32.10
2022-08-22T10:06:16.594Z,31.60
2022-08-22T10:08:46.010Z,31.10
2022-08-22T10:11:18.821Z,29.90
2022-08-22T10:13:57.773Z,29.60
2022-08-22T10:16:37.121Z,29.80
2022-08-22T10:19:27.201Z,30.50
2022-08-22T10:22:06.049Z,29.80
2022-08-22T10:24:44.125Z,30.20
2022-08-22T10:27:24.631Z,30.10
2022-08-22T10:30:18.360Z,29.90
2022-08-22T10:32:48.424Z,30.20
2022-08-22T10:35:21.748Z,30.20
2022-08-22T10:37:52.188Z,30.40
2022-08-22T10:40:30.541Z,30.50
2022-08-22T10:43:08.128Z,30.30
2022-08-22T10:45:37.734Z,30.30
2022-08-22T10:48:10.485Z,30.10
2022-08-22T10:50:40.236Z,30.00
2022-08-22T10:53:33.400Z,29.70
2022-08-22T10:56:21.957Z,29.70
2022-08-22T10:58:58.149Z,29.60
2022-08-22T11:01:37.823Z,29.60
2022-08-22T11:04:12.273Z,29.20
2022-08-22T11:06:46.514Z,29.00
2022-08-22T11:09:35.805Z,28.90
2022-08-22T11:12:19.221Z,28.90
2022-08-22T11:14:52.059Z,29.20
2022-08-22T11:17:33.906Z,29.30
2022-08-22T11:20:07.068Z,28.50
2022-08-22T11:22:48.590Z,28.10
2022-08-22T11:25:15.460Z,27.70
2022-08-22T11:27:59.224Z,27.50
2022-08-22T11:30:44.563Z,28.20
2022-08-22T11:33:18.306Z,28.50
2022-08-22T11:35:58.972Z,29.10
2022-08-22T11:38:39.526Z,29.40
2022-08-22T11:41:16.958Z,29.60
2022-08-22T11:44:01.420Z,29.50
2022-08-22T11:46:32.096Z,29.50
2022-08-22T11:49:04.778Z,29.50
2022-08-22T11:51:51.781Z,30.00
2022-08-22T11:54:32.071Z,30.20
2022-08-22T11:57:07.842Z,30.30
2022-08-22T11:59:47.731Z,30.60
2022-08-22T12:02:31.670Z,30.70
2022-08-22T12:05:09.441Z,30.10
2022-08-22T12:07:50.501Z,30.10
2022-08-22T12:10:19.989Z,29.70
2022-08-22T12:12:46.885Z,29.90
2022-08-22T12:15:21.309Z,30.00
2022-08-22T12:18:03.295Z,30.10
2022-08-22T12:20:32.728Z,30.50
2022-08-22T12:23:01.124Z,30.60
2022-08-22T12:25:28.047Z,30.60
2022-08-22T12:27:55.426Z,30.00
2022-08-22T12:30:44.911Z,29.70
2022-08-22T12:33:34.997Z,29.40
2022-08-22T12:36:18.458Z,29.10
2022-08-22T12:38:48.409Z,29.20
2022-08-22T12:41:35.185Z,29.00
2022-08-22T12:44:17.694Z,29.00
2022-08-22T12:46:55.523Z,28.80
2022-08-22T12:49:47.726Z,29.10
2022-08-22T12:52:19.490Z,29.60
2022-08-22T12:54:58.409Z,30.00
2022-08-22T12:58:00.109Z,30.10
2022-08-22T13:00:38.147Z,29.90
2022-08-22T13:03:07.103Z,30.00
2022-08-22T13:05:40.904Z,29.70
2022-08-22T13:08:11.652Z,29.80
2022-08-22T13:10:44.822Z,29.50
2022-08-22T13:13:14.503Z,29.40
2022-08-22T13:15:53.585Z,29.60
2022-08-22T13:18:31.638Z,29.70
2022-08-22T13:21:01.008Z,29.60
2022-08-22T13:23:32.586Z,29.60
2022-08-22T13:26:07.659Z,29.50
2022-08-22T13:28:40.150Z,29.20
2022-08-22T13:31:08.157Z,29.00
2022-08-22T13:33:38.969Z,29.30
2022-08-22T13:36:07.858Z,29.30
2022-08-22T13:38:46.263Z,29.40
2022-08-22T13:41:18.724Z,29.00
2022-08-22T13:44:13.356Z,28.60
2022-08-22T13:47:10.904Z,28.50
2022-08-22T13:49:33.840Z,28.50
2022-08-22T13:52:14.566Z,28.70
2022-08-22T13:55:02.221Z,28.70
2022-08-22T13:57:28.959Z,28.70
2022-08-22T14:00:12.567Z,28.80
2022-08-22T14:03:13.013Z,28.60
2022-08-22T14:05:42.156Z,28.10
2022-08-22T14:08:18.623Z,28.40
2022-08-22T14:11:02.315Z,28.30
2022-08-22T14:13:39.658Z,28.10
2022-08-22T14:16:27.047Z,28.20
2022-08-22T14:18:56.686Z,27.80
2022-08-22T14:21:33.460Z,27.80
2022-08-22T14:24:07.727Z,27.80
2022-08-22T14:26:47.768Z,27.50
2022-08-22T14:29:16.085Z,27.80
2022-08-22T14:31:54.505Z,27.90
2022-08-22T14:34:21.634Z,28.00
2022-08-22T14:36:53.198Z,28.30
2022-08-22T14:39:23.860Z,28.20
2022-08-22T14:41:59.430Z,28.30
2022-08-22T14:44:29.775Z,28.30
2022-08-22T14:46:59.438Z,28.50
2022-08-22T14:49:28.710Z,28.60
2022-08-22T14:52:07.642Z,28.50
2022-08-22T14:54:36.152Z,28.50
2022-08-22T14:57:10.331Z,28.60
2022-08-22T14:59:37.188Z,28.40
2022-08-22T15:02:07.566Z,28.30
2022-08-22T15:04:38.846Z,28.20
2022-08-22T15:07:06.513Z,27.90
2022-08-22T15:09:58.652Z,27.90
2022-08-22T15:12:25.360Z,28.00
2022-08-22T15:14:54.391Z,28.20
2022-08-22T15:17:36.267Z,28.10
2022-08-22T15:20:35.660Z,27.90
2022-08-22T15:23:09.911Z,27.70
2022-08-22T15:25:41.770Z,27.70
2022-08-22T15:28:14.046Z,27.70
2022-08-22T15:30:46.807Z,27.80
2022-08-22T15:33:21.549Z,27.90
2022-08-22T15:35:49.668Z,27.70
2022-08-22T15:38:28.251Z,27.60
2022-08-22T15:40:55.587Z,27.50
2022-08-22T15:43:33.636Z,27.50
2022-08-22T15:46:37.137Z,27.40
2022-08-22T15:49:23.317Z,27.20
2022-08-22T15:51:53.383Z,27.30
2022-08-22T15:54:28.954Z,27.30
2022-08-22T15:57:13.485Z,27.30
2022-08-22T15:59:48.168Z,27.40
2022-08-22T16:02:39.038Z,27.40
2022-08-22T16:05:11.583Z,27.30
2022-08-22T16:07:38.219Z,27.30
2022-08-22T16:10:28.288Z,27.40
2022-08-22T16:13:13.736Z,27.50
2022-08-22T16:15:52.849Z,27.30
2022-08-22T16:18:48.945Z,27.20
2022-08-22T16:21:16.660Z,27.10
2022-08-22T16:23:58.471Z,27.20
2022-08-22T16:26:31.525Z,27.20
2022-08-22T16:29:13.628Z,27.00
2022-08-22T16:31:44.090Z,26.90
2022-08-22T16:34:17.094Z,26.90
2022-08-22T16:37:02.505Z,26.70
2022-08-22T16:39:32.030Z,26.70
2022-08-22T16:42:21.904Z,26.70
2022-08-22T16:44:54.466Z,26.80
2022-08-22T16:47:30.233Z,26.70
2022-08-22T16:50:02.506Z,26.70
2022-08-22T16:52:29.503Z,26.50
2022-08-22T16:55:26.041Z,26.50
2022-08-22T16:58:11.480Z,26.50
2022-08-22T17:00:50.120Z,26.50
2022-08-22T17:03:31.292Z,26.50
2022-08-22T17:06:16.634Z,26.40
2022-08-22T17:08:43.364Z,26.30
2022-08-22T17:11:13.118Z,26.20
2022-08-22T17:13:42.576Z,26.20
2022-08-22T17:16:21.686Z,26.30
2022-08-22T17:18:51.224Z,26.30
2022-08-22T17:21:25.843Z,26.20
2022-08-22T17:24:11.666Z,26.20
2022-08-22T17:27:16.032Z,26.10
2022-08-22T17:29:48.753Z,25.90
2022-08-22T17:32:15.375Z,25.80
2022-08-22T17:34:41.998Z,25.70
2022-08-22T17:37:09.047Z,25.60
2022-08-22T17:39:37.547Z,25.60
2022-08-22T17:42:14.756Z,25.50
2022-08-22T17:44:47.401Z,25.40
2022-08-22T17:47:27.542Z,25.40
2022-08-22T17:49:58.887Z,25.30
2022-08-22T17:52:44.469Z,25.20
2022-08-22T17:55:16.024Z,25.10
2022-08-22T17:58:06.576Z,24.90
2022-08-22T18:00:41.640Z,24.80
2022-08-22T18:03:08.846Z,24.70
2022-08-22T18:05:55.766Z,24.50
2022-08-22T18:11:40.239Z,24.00
2022-08-22T18:14:21.780Z,23.60
2022-08-22T18:16:50.583Z,23.20
2022-08-22T18:19:21.184Z,22.90
2022-08-22T18:21:50.630Z,22.60
2022-08-22T18:24:33.240Z,22.40
2022-08-22T18:27:04.465Z,22.20
2022-08-22T18:29:40.079Z,22.00
2022-08-22T18:32:06.779Z,21.80
2022-08-22T18:34:40.758Z,21.60
2022-08-22T18:37:17.090Z,21.40
2022-08-22T18:39:51.688Z,21.10
2022-08-22T18:42:24.227Z,20.90
2022-08-22T18:44:50.922Z,20.70
2022-08-22T18:47:29.961Z,20.50
2022-08-22T18:49:56.823Z,20.40
2022-08-22T18:52:26.273Z,20.30
2022-08-22T18:55:11.457Z,20.20
2022-08-22T18:57:42.866Z,19.90
2022-08-22T19:00:20.780Z,19.80
2022-08-22T19:02:57.620Z,19.60
2022-08-22T19:05:27.429Z,19.50
2022-08-22T19:07:54.169Z,19.40
2022-08-22T19:10:30.214Z,19.30
2022-08-22T19:12:59.926Z,19.20
2022-08-22T19:15:38.711Z,19.20
2022-08-22T19:18:11.259Z,19.10
2022-08-22T19:21:17.704Z,19.00
2022-08-22T19:23:47.632Z,19.00
2022-08-22T19:26:27.751Z,18.80
2022-08-22T19:28:57.308Z,18.70
2022-08-22T19:31:44.293Z,18.60
2022-08-22T19:34:19.103Z,18.50
2022-08-22T19:36:46.257Z,18.40
2022-08-22T19:39:31.731Z,18.30
2022-08-22T19:41:59.637Z,18.20
2022-08-22T19:44:26.353Z,18.10
2022-08-22T19:47:11.741Z,18.00
2022-08-22T19:49:45.008Z,17.90
2022-08-22T19:52:23.939Z,17.90
2022-08-22T19:54:59.300Z,17.80
2022-08-22T19:57:46.138Z,17.80
2022-08-22T20:00:20.275Z,17.60
2022-08-22T20:02:50.152Z,17.60
2022-08-22T20:05:16.770Z,17.40
2022-08-22T20:07:47.005Z,17.40
2022-08-22T20:10:35.081Z,17.60
2022-08-22T20:13:10.308Z,17.30
2022-08-22T20:15:55.818Z,17.20
2022-08-22T20:18:51.868Z,17.10
2022-08-22T20:21:51.129Z,17.10
2022-08-22T20:24:20.824Z,17.00
2022-08-22T20:27:12.159Z,16.90
2022-08-22T20:29:36.978Z,16.90
2022-08-22T20:32:05.149Z,16.90
2022-08-22T20:34:33.495Z,16.80
2022-08-22T20:37:27.167Z,16.80
2022-08-22T20:39:59.901Z,16.80
2022-08-22T20:42:31.012Z,16.80
2022-08-22T20:44:58.988Z,16.80
2022-08-22T20:47:34.103Z,16.70
2022-08-22T20:50:12.187Z,16.60
2022-08-22T20:52:42.681Z,16.50
2022-08-22T20:55:31.873Z,16.40
2022-08-22T20:57:58.744Z,16.30
2022-08-22T21:00:45.719Z,16.20
2022-08-22T21:03:15.324Z,16.20
2022-08-22T21:05:43.649Z,16.20
2022-08-22T21:08:13.168Z,16.10
2022-08-22T21:10:59.753Z,16.10
2022-08-22T21:13:26.499Z,16.10
2022-08-22T21:15:57.622Z,16.00
2022-08-22T21:18:24.252Z,16.00
2022-08-22T21:20:51.125Z,16.10
2022-08-22T21:23:17.952Z,16.10
2022-08-22T21:25:50.507Z,16.10
2022-08-22T21:28:33.135Z,16.10
2022-08-22T21:31:06.560Z,16.10
2022-08-22T21:33:33.222Z,16.10
2022-08-22T21:36:00.580Z,16.10
2022-08-22T21:38:27.376Z,16.10
2022-08-22T21:41:00.363Z,16.10
2022-08-22T21:43:34.882Z,16.30
2022-08-22T21:46:01.589Z,16.40
2022-08-22T21:48:34.586Z,16.40
2022-08-22T21:51:20.270Z,16.40
2022-08-22T21:53:47.076Z,16.40
2022-08-22T21:56:14.907Z,16.30
2022-08-22T21:58:42.235Z,16.30
2022-08-22T22:01:29.605Z,16.30
2022-08-22T22:03:57.155Z,16.30
2022-08-22T22:06:23.898Z,16.30
2022-08-22T22:08:50.875Z,16.30
2022-08-22T22:11:17.805Z,16.40
2022-08-22T22:13:45.142Z,16.40
2022-08-22T22:16:14.823Z,16.40
2022-08-22T22:18:41.539Z,16.30
2022-08-22T22:21:08.762Z,16.30
2022-08-22T22:23:35.493Z,16.30
2022-08-22T22:26:03.590Z,16.30
2022-08-22T22:28:31.771Z,16.30
2022-08-22T22:30:58.843Z,16.30
2022-08-22T22:33:30.821Z,16.30
2022-08-22T22:36:00.246Z,16.30
2022-08-22T22:38:26.919Z,16.30
2022-08-22T22:40:53.567Z,16.20
2022-08-22T22:43:20.851Z,16.20
2022-08-22T22:45:47.601Z,16.10
2022-08-22T22:48:24.175Z,16.00
2022-08-22T22:50:52.436Z,15.90
2022-08-22T22:53:21.495Z,15.90
2022-08-22T22:55:59.941Z,15.80
2022-08-22T22:58:27.214Z,15.70
2022-08-22T23:00:53.985Z,15.70
2022-08-22T23:03:21.287Z,15.70
2022-08-22T23:05:48.027Z,15.70
2022-08-22T23:08:14.703Z,15.70
2022-08-22T23:10:41.355Z,15.60
2022-08-22T23:13:08.065Z,15.60
2022-08-22T23:15:34.833Z,15.50
2022-08-22T23:18:02.347Z,15.50
2022-08-22T23:20:29.055Z,15.50
2022-08-22T23:22:55.744Z,15.40
2022-08-22T23:25:22.534Z,15.40
2022-08-22T23:27:52.512Z,15.40
2022-08-22T23:30:19.795Z,15.40
2022-08-22T23:32:46.470Z,15.40
2022-08-22T23:35:13.469Z,15.40
2022-08-22T23:37:40.184Z,15.30
2022-08-22T23:40:10.417Z,15.30
2022-08-22T23:42:37.197Z,15.30
2022-08-22T23:45:04.043Z,15.30
2022-08-22T23:47:30.731Z,15.30
2022-08-22T23:49:57.358Z,15.20
2022-08-22T23:52:24.804Z,15.10
2022-08-22T23:54:54.403Z,15.10
2022-08-22T23:57:27.537Z,15.00
2022-08-22T23:59:57.233Z,15.00
